sensor_id;sensor_type;location;lat;lon;timestamp;temperature;humidity
72940;DHT22;61094;51.154;13.570;2023-02-27T00:00:06;-3.00;99.90
72940;DHT22;61094;51.154;13.570;2023-02-27T00:02:14;-3.00;99.90
72940;DHT22;61094;51.154;13.570;2023-02-27T00:04:15;-3.00;99.90
72940;DHT22;61094;51.154;13.570;2023-02-27T00:06:17;-3.10;99.90
72940;DHT22;61094;51.154;13.570;2023-02-27T00:08:18;-3.10;99.90
72940;DHT22;61094;51.154;13.570;2023-02-27T00:10:21;-3.20;99.90
72940;DHT22;61094;51.154;13.570;2023-02-27T00:12:23;-3.20;99.90
72940;DHT22;61094;51.154;13.570;2023-02-27T00:14:26;-3.20;99.90
72940;DHT22;61094;51.154;13.570;2023-02-27T00:16:27;-3.20;99.90
72940;DHT22;61094;51.154;13.570;2023-02-27T00:18:29;-3.30;99.90
72940;DHT22;61094;51.154;13.570;2023-02-27T00:20:31;-3.30;99.90
72940;DHT22;61094;51.154;13.570;2023-02-27T00:22:37;-3.30;99.90
72940;DHT22;61094;51.154;13.570;2023-02-27T00:24:38;-3.40;99.90
72940;DHT22;61094;51.154;13.570;2023-02-27T00:26:41;-3.40;99.90
72940;DHT22;61094;51.154;13.570;2023-02-27T00:28:44;-3.40;99.90
72940;DHT22;61094;51.154;13.570;2023-02-27T00:30:46;-3.50;99.90
72940;DHT22;61094;51.154;13.570;2023-02-27T00:32:47;-3.50;99.90
72940;DHT22;61094;51.154;13.570;2023-02-27T00:34:49;-3.50;99.90
72940;DHT22;61094;51.154;13.570;2023-02-27T00:36:51;-3.50;99.90
72940;DHT22;61094;51.154;13.570;2023-02-27T00:38:53;-3.60;99.90
72940;DHT22;61094;51.154;13.570;2023-02-27T00:40:54;-3.60;99.90
72940;DHT22;61094;51.154;13.570;2023-02-27T00:42:57;-3.60;99.90
72940;DHT22;61094;51.154;13.570;2023-02-27T00:44:59;-3.60;99.90
72940;DHT22;61094;51.154;13.570;2023-02-27T00:47:00;-3.70;99.90
72940;DHT22;61094;51.154;13.570;2023-02-27T00:49:02;-3.60;99.90
72940;DHT22;61094;51.154;13.570;2023-02-27T00:51:04;-3.70;99.90
72940;DHT22;61094;51.154;13.570;2023-02-27T00:53:06;-3.70;99.90
72940;DHT22;61094;51.154;13.570;2023-02-27T00:55:09;-3.70;99.90
72940;DHT22;61094;51.154;13.570;2023-02-27T00:57:11;-3.70;99.90
72940;DHT22;61094;51.154;13.570;2023-02-27T00:59:15;-3.70;99.90
72940;DHT22;61094;51.154;13.570;2023-02-27T01:01:19;-3.70;99.90
72940;DHT22;61094;51.154;13.570;2023-02-27T01:03:20;-3.70;99.90
72940;DHT22;61094;51.154;13.570;2023-02-27T01:05:22;-3.70;99.90
72940;DHT22;61094;51.154;13.570;2023-02-27T01:07:24;-3.80;99.90
72940;DHT22;61094;51.154;13.570;2023-02-27T01:09:27;-3.80;99.90
72940;DHT22;61094;51.154;13.570;2023-02-27T01:11:29;-3.80;99.90
72940;DHT22;61094;51.154;13.570;2023-02-27T01:13:33;-3.80;99.90
72940;DHT22;61094;51.154;13.570;2023-02-27T01:15:36;-3.90;99.90
72940;DHT22;61094;51.154;13.570;2023-02-27T01:17:38;-3.90;99.90
72940;DHT22;61094;51.154;13.570;2023-02-27T01:19:40;-3.90;99.90
72940;DHT22;61094;51.154;13.570;2023-02-27T01:21:41;-4.00;99.90
72940;DHT22;61094;51.154;13.570;2023-02-27T01:23:43;-4.00;99.90
72940;DHT22;61094;51.154;13.570;2023-02-27T01:25:45;-4.00;99.90
72940;DHT22;61094;51.154;13.570;2023-02-27T01:27:48;-4.00;99.90
72940;DHT22;61094;51.154;13.570;2023-02-27T01:29:50;-4.00;99.90
72940;DHT22;61094;51.154;13.570;2023-02-27T01:31:53;-4.00;99.90
72940;DHT22;61094;51.154;13.570;2023-02-27T01:33:55;-4.00;99.90
72940;DHT22;61094;51.154;13.570;2023-02-27T01:35:56;-4.00;99.90
72940;DHT22;61094;51.154;13.570;2023-02-27T01:37:58;-4.00;99.90
72940;DHT22;61094;51.154;13.570;2023-02-27T01:40:00;-4.00;99.90
72940;DHT22;61094;51.154;13.570;2023-02-27T01:42:02;-4.00;99.90
72940;DHT22;61094;51.154;13.570;2023-02-27T01:44:06;-4.00;99.90
72940;DHT22;61094;51.154;13.570;2023-02-27T01:46:10;-4.00;99.90
72940;DHT22;61094;51.154;13.570;2023-02-27T01:48:16;-4.00;99.90
72940;DHT22;61094;51.154;13.570;2023-02-27T01:50:19;-4.10;99.90
72940;DHT22;61094;51.154;13.570;2023-02-27T01:52:21;-4.20;99.90
72940;DHT22;61094;51.154;13.570;2023-02-27T01:54:25;-4.20;99.90
72940;DHT22;61094;51.154;13.570;2023-02-27T01:56:28;-4.20;99.90
72940;DHT22;61094;51.154;13.570;2023-02-27T01:58:31;-4.20;99.90
72940;DHT22;61094;51.154;13.570;2023-02-27T02:00:33;-4.20;99.90
72940;DHT22;61094;51.154;13.570;2023-02-27T02:02:37;-4.30;99.90
72940;DHT22;61094;51.154;13.570;2023-02-27T02:04:41;-4.30;99.90
72940;DHT22;61094;51.154;13.570;2023-02-27T02:06:46;-4.30;99.90
72940;DHT22;61094;51.154;13.570;2023-02-27T02:08:52;-4.30;99.90
72940;DHT22;61094;51.154;13.570;2023-02-27T02:10:57;-4.40;99.90
72940;DHT22;61094;51.154;13.570;2023-02-27T02:12:59;-4.40;99.90
72940;DHT22;61094;51.154;13.570;2023-02-27T02:15:01;-4.40;99.90
72940;DHT22;61094;51.154;13.570;2023-02-27T02:17:11;-4.40;99.90
72940;DHT22;61094;51.154;13.570;2023-02-27T02:19:48;-4.50;99.90
72940;DHT22;61094;51.154;13.570;2023-02-27T02:22:23;-4.50;99.90
72940;DHT22;61094;51.154;13.570;2023-02-27T02:27:24;-4.50;99.90
72940;DHT22;61094;51.154;13.570;2023-02-27T02:29:51;-4.40;99.90
72940;DHT22;61094;51.154;13.570;2023-02-27T02:32:38;-4.50;99.90
72940;DHT22;61094;51.154;13.570;2023-02-27T02:34:59;-4.50;99.90
72940;DHT22;61094;51.154;13.570;2023-02-27T02:42:20;-4.40;99.90
72940;DHT22;61094;51.154;13.570;2023-02-27T02:44:30;-4.40;99.90
72940;DHT22;61094;51.154;13.570;2023-02-27T02:46:39;-4.40;99.90
72940;DHT22;61094;51.154;13.570;2023-02-27T02:48:46;-4.30;99.90
72940;DHT22;61094;51.154;13.570;2023-02-27T02:50:55;-4.30;99.90
72940;DHT22;61094;51.154;13.570;2023-02-27T02:53:05;-4.30;99.90
72940;DHT22;61094;51.154;13.570;2023-02-27T02:55:15;-4.20;99.90
72940;DHT22;61094;51.154;13.570;2023-02-27T02:57:28;-4.20;99.90
72940;DHT22;61094;51.154;13.570;2023-02-27T02:59:35;-4.10;99.90
72940;DHT22;61094;51.154;13.570;2023-02-27T03:01:43;-4.10;99.90
72940;DHT22;61094;51.154;13.570;2023-02-27T03:03:50;-4.00;99.90
72940;DHT22;61094;51.154;13.570;2023-02-27T03:05:57;-4.00;99.90
72940;DHT22;61094;51.154;13.570;2023-02-27T03:08:04;-3.90;99.90
72940;DHT22;61094;51.154;13.570;2023-02-27T03:10:10;-3.90;99.90
72940;DHT22;61094;51.154;13.570;2023-02-27T03:12:17;-3.80;99.90
72940;DHT22;61094;51.154;13.570;2023-02-27T03:14:23;-3.80;99.90
72940;DHT22;61094;51.154;13.570;2023-02-27T03:16:30;-3.80;99.90
72940;DHT22;61094;51.154;13.570;2023-02-27T03:18:36;-3.70;99.90
72940;DHT22;61094;51.154;13.570;2023-02-27T03:20:44;-3.70;99.90
72940;DHT22;61094;51.154;13.570;2023-02-27T03:22:51;-3.70;99.90
72940;DHT22;61094;51.154;13.570;2023-02-27T03:24:58;-3.60;99.90
72940;DHT22;61094;51.154;13.570;2023-02-27T03:27:04;-3.70;99.90
72940;DHT22;61094;51.154;13.570;2023-02-27T03:29:10;-3.60;99.90
72940;DHT22;61094;51.154;13.570;2023-02-27T03:31:18;-3.50;99.90
72940;DHT22;61094;51.154;13.570;2023-02-27T03:33:25;-3.50;99.90
72940;DHT22;61094;51.154;13.570;2023-02-27T03:35:44;-3.40;99.90
72940;DHT22;61094;51.154;13.570;2023-02-27T03:37:55;-3.40;99.90
72940;DHT22;61094;51.154;13.570;2023-02-27T03:40:03;-3.40;99.90
72940;DHT22;61094;51.154;13.570;2023-02-27T03:42:15;-3.30;99.90
72940;DHT22;61094;51.154;13.570;2023-02-27T03:44:49;-3.30;99.90
72940;DHT22;61094;51.154;13.570;2023-02-27T03:46:51;-3.30;99.90
72940;DHT22;61094;51.154;13.570;2023-02-27T03:48:53;-3.20;99.90
72940;DHT22;61094;51.154;13.570;2023-02-27T03:50:55;-3.20;99.90
72940;DHT22;61094;51.154;13.570;2023-02-27T03:52:57;-3.20;99.90
72940;DHT22;61094;51.154;13.570;2023-02-27T03:55:04;-3.10;99.90
72940;DHT22;61094;51.154;13.570;2023-02-27T03:57:07;-3.10;99.90
72940;DHT22;61094;51.154;13.570;2023-02-27T03:59:11;-3.10;99.90
72940;DHT22;61094;51.154;13.570;2023-02-27T04:01:19;-3.10;99.90
72940;DHT22;61094;51.154;13.570;2023-02-27T04:03:22;-3.00;99.90
72940;DHT22;61094;51.154;13.570;2023-02-27T04:05:24;-3.00;99.90
72940;DHT22;61094;51.154;13.570;2023-02-27T04:07:36;-3.00;99.90
72940;DHT22;61094;51.154;13.570;2023-02-27T04:09:47;-3.00;99.90
72940;DHT22;61094;51.154;13.570;2023-02-27T04:11:59;-3.00;99.90
72940;DHT22;61094;51.154;13.570;2023-02-27T04:14:21;-3.00;99.90
72940;DHT22;61094;51.154;13.570;2023-02-27T04:16:53;-3.00;99.90
72940;DHT22;61094;51.154;13.570;2023-02-27T04:19:07;-2.90;99.90
72940;DHT22;61094;51.154;13.570;2023-02-27T04:21:17;-2.90;99.90
72940;DHT22;61094;51.154;13.570;2023-02-27T04:23:25;-2.90;99.90
72940;DHT22;61094;51.154;13.570;2023-02-27T04:25:42;-2.90;99.90
72940;DHT22;61094;51.154;13.570;2023-02-27T04:27:52;-2.90;99.90
72940;DHT22;61094;51.154;13.570;2023-02-27T04:30:00;-2.90;99.90
72940;DHT22;61094;51.154;13.570;2023-02-27T04:32:13;-2.90;99.90
72940;DHT22;61094;51.154;13.570;2023-02-27T04:34:21;-2.90;99.90
72940;DHT22;61094;51.154;13.570;2023-02-27T04:36:27;-2.90;99.90
72940;DHT22;61094;51.154;13.570;2023-02-27T04:38:36;-2.80;99.90
72940;DHT22;61094;51.154;13.570;2023-02-27T04:40:42;-2.80;99.90
72940;DHT22;61094;51.154;13.570;2023-02-27T04:42:47;-2.80;99.90
72940;DHT22;61094;51.154;13.570;2023-02-27T04:44:54;-2.80;99.90
72940;DHT22;61094;51.154;13.570;2023-02-27T04:46:59;-2.80;99.90
72940;DHT22;61094;51.154;13.570;2023-02-27T04:49:06;-2.70;99.90
72940;DHT22;61094;51.154;13.570;2023-02-27T04:51:12;-2.70;99.90
72940;DHT22;61094;51.154;13.570;2023-02-27T04:53:18;-2.70;99.90
72940;DHT22;61094;51.154;13.570;2023-02-27T04:55:24;-2.60;99.90
72940;DHT22;61094;51.154;13.570;2023-02-27T04:57:31;-2.60;99.90
72940;DHT22;61094;51.154;13.570;2023-02-27T04:59:38;-2.60;99.90
72940;DHT22;61094;51.154;13.570;2023-02-27T05:01:45;-2.50;99.90
72940;DHT22;61094;51.154;13.570;2023-02-27T05:03:51;-2.50;99.90
72940;DHT22;61094;51.154;13.570;2023-02-27T05:05:57;-2.50;99.90
72940;DHT22;61094;51.154;13.570;2023-02-27T05:08:04;-2.40;99.90
72940;DHT22;61094;51.154;13.570;2023-02-27T05:10:13;-2.40;99.90
72940;DHT22;61094;51.154;13.570;2023-02-27T05:12:18;-2.40;99.90
72940;DHT22;61094;51.154;13.570;2023-02-27T05:14:23;-2.40;99.90
72940;DHT22;61094;51.154;13.570;2023-02-27T05:16:31;-2.40;99.90
72940;DHT22;61094;51.154;13.570;2023-02-27T05:18:33;-2.40;99.90
72940;DHT22;61094;51.154;13.570;2023-02-27T05:20:42;-2.40;99.90
72940;DHT22;61094;51.154;13.570;2023-02-27T05:22:57;-2.40;99.90
72940;DHT22;61094;51.154;13.570;2023-02-27T05:25:05;-2.40;99.90
72940;DHT22;61094;51.154;13.570;2023-02-27T05:27:16;-2.30;99.90
72940;DHT22;61094;51.154;13.570;2023-02-27T05:29:24;-2.40;99.90
72940;DHT22;61094;51.154;13.570;2023-02-27T05:31:33;-2.30;99.90
72940;DHT22;61094;51.154;13.570;2023-02-27T05:33:46;-2.30;99.90
72940;DHT22;61094;51.154;13.570;2023-02-27T05:35:53;-2.30;99.90
72940;DHT22;61094;51.154;13.570;2023-02-27T05:38:02;-2.30;99.90
72940;DHT22;61094;51.154;13.570;2023-02-27T05:40:07;-2.30;99.90
72940;DHT22;61094;51.154;13.570;2023-02-27T05:42:15;-2.30;99.90
72940;DHT22;61094;51.154;13.570;2023-02-27T05:44:19;-2.40;99.90
72940;DHT22;61094;51.154;13.570;2023-02-27T05:46:26;-2.40;99.90
72940;DHT22;61094;51.154;13.570;2023-02-27T05:48:31;-2.40;99.90
72940;DHT22;61094;51.154;13.570;2023-02-27T05:50:37;-2.50;99.90
72940;DHT22;61094;51.154;13.570;2023-02-27T05:52:41;-2.50;99.90
72940;DHT22;61094;51.154;13.570;2023-02-27T05:54:47;-2.50;99.90
72940;DHT22;61094;51.154;13.570;2023-02-27T05:56:52;-2.60;99.90
72940;DHT22;61094;51.154;13.570;2023-02-27T05:58:59;-2.60;99.90
72940;DHT22;61094;51.154;13.570;2023-02-27T06:01:03;-2.60;99.90
72940;DHT22;61094;51.154;13.570;2023-02-27T06:03:05;-2.60;99.90
72940;DHT22;61094;51.154;13.570;2023-02-27T06:05:08;-2.70;99.90
72940;DHT22;61094;51.154;13.570;2023-02-27T06:07:11;-2.70;99.90
72940;DHT22;61094;51.154;13.570;2023-02-27T06:09:14;-2.80;99.90
72940;DHT22;61094;51.154;13.570;2023-02-27T06:11:16;-2.80;99.90
72940;DHT22;61094;51.154;13.570;2023-02-27T06:13:18;-2.90;99.90
72940;DHT22;61094;51.154;13.570;2023-02-27T06:15:20;-2.80;99.90
72940;DHT22;61094;51.154;13.570;2023-02-27T06:17:22;-2.90;99.90
72940;DHT22;61094;51.154;13.570;2023-02-27T06:19:24;-2.80;99.90
72940;DHT22;61094;51.154;13.570;2023-02-27T06:21:25;-2.70;99.90
72940;DHT22;61094;51.154;13.570;2023-02-27T06:23:27;-2.60;99.90
72940;DHT22;61094;51.154;13.570;2023-02-27T06:25:30;-2.60;99.90
72940;DHT22;61094;51.154;13.570;2023-02-27T06:27:32;-2.50;99.90
72940;DHT22;61094;51.154;13.570;2023-02-27T06:29:33;-2.40;99.90
72940;DHT22;61094;51.154;13.570;2023-02-27T06:31:35;-2.20;99.90
72940;DHT22;61094;51.154;13.570;2023-02-27T06:33:37;-2.10;99.90
72940;DHT22;61094;51.154;13.570;2023-02-27T06:35:38;-2.00;99.90
72940;DHT22;61094;51.154;13.570;2023-02-27T06:37:40;-2.00;99.90
72940;DHT22;61094;51.154;13.570;2023-02-27T06:39:42;-1.90;99.90
72940;DHT22;61094;51.154;13.570;2023-02-27T06:41:45;-2.00;99.90
72940;DHT22;61094;51.154;13.570;2023-02-27T06:43:47;-2.00;99.90
72940;DHT22;61094;51.154;13.570;2023-02-27T06:45:52;-2.00;99.90
72940;DHT22;61094;51.154;13.570;2023-02-27T06:47:54;-2.00;99.90
72940;DHT22;61094;51.154;13.570;2023-02-27T06:49:55;-2.00;99.90
72940;DHT22;61094;51.154;13.570;2023-02-27T06:51:57;-1.90;99.90
72940;DHT22;61094;51.154;13.570;2023-02-27T06:53:59;-1.90;99.90
72940;DHT22;61094;51.154;13.570;2023-02-27T06:56:00;-1.90;99.90
72940;DHT22;61094;51.154;13.570;2023-02-27T06:58:03;-1.80;99.90
72940;DHT22;61094;51.154;13.570;2023-02-27T07:00:06;-1.80;99.90
72940;DHT22;61094;51.154;13.570;2023-02-27T07:02:10;-1.80;99.90
72940;DHT22;61094;51.154;13.570;2023-02-27T07:04:13;-1.60;99.90
72940;DHT22;61094;51.154;13.570;2023-02-27T07:06:15;-1.60;99.90
72940;DHT22;61094;51.154;13.570;2023-02-27T07:08:17;-1.60;99.90
72940;DHT22;61094;51.154;13.570;2023-02-27T07:10:18;-1.60;99.90
72940;DHT22;61094;51.154;13.570;2023-02-27T07:12:20;-1.50;99.90
72940;DHT22;61094;51.154;13.570;2023-02-27T07:14:23;-1.50;99.90
72940;DHT22;61094;51.154;13.570;2023-02-27T07:16:25;-1.40;99.90
72940;DHT22;61094;51.154;13.570;2023-02-27T07:18:27;-1.40;99.90
72940;DHT22;61094;51.154;13.570;2023-02-27T07:20:28;-1.30;99.90
72940;DHT22;61094;51.154;13.570;2023-02-27T07:22:30;-1.30;99.90
72940;DHT22;61094;51.154;13.570;2023-02-27T07:24:32;-1.30;99.90
72940;DHT22;61094;51.154;13.570;2023-02-27T07:26:33;-1.30;99.90
72940;DHT22;61094;51.154;13.570;2023-02-27T07:28:35;-1.20;99.90
72940;DHT22;61094;51.154;13.570;2023-02-27T07:30:38;-1.20;99.90
72940;DHT22;61094;51.154;13.570;2023-02-27T07:32:40;-1.20;99.90
72940;DHT22;61094;51.154;13.570;2023-02-27T07:34:42;-1.10;99.90
72940;DHT22;61094;51.154;13.570;2023-02-27T07:36:44;-1.10;99.90
72940;DHT22;61094;51.154;13.570;2023-02-27T07:38:46;-1.00;99.90
72940;DHT22;61094;51.154;13.570;2023-02-27T07:40:47;-0.90;99.90
72940;DHT22;61094;51.154;13.570;2023-02-27T07:42:49;-0.90;99.90
72940;DHT22;61094;51.154;13.570;2023-02-27T07:44:51;-0.80;99.90
72940;DHT22;61094;51.154;13.570;2023-02-27T07:46:54;-0.80;99.90
72940;DHT22;61094;51.154;13.570;2023-02-27T07:48:56;-0.80;99.90
72940;DHT22;61094;51.154;13.570;2023-02-27T07:50:58;-0.70;99.90
72940;DHT22;61094;51.154;13.570;2023-02-27T07:52:59;-0.70;99.90
72940;DHT22;61094;51.154;13.570;2023-02-27T07:55:01;-0.70;99.90
72940;DHT22;61094;51.154;13.570;2023-02-27T07:57:03;-0.60;99.90
72940;DHT22;61094;51.154;13.570;2023-02-27T07:59:05;-0.50;99.90
72940;DHT22;61094;51.154;13.570;2023-02-27T08:01:06;-0.50;99.90
72940;DHT22;61094;51.154;13.570;2023-02-27T08:03:09;-0.40;99.90
72940;DHT22;61094;51.154;13.570;2023-02-27T08:05:11;-0.40;99.90
72940;DHT22;61094;51.154;13.570;2023-02-27T08:07:13;-0.30;99.90
72940;DHT22;61094;51.154;13.570;2023-02-27T08:09:15;-0.20;99.90
72940;DHT22;61094;51.154;13.570;2023-02-27T08:11:17;-0.20;99.90
72940;DHT22;61094;51.154;13.570;2023-02-27T08:13:18;-0.10;99.90
72940;DHT22;61094;51.154;13.570;2023-02-27T08:15:20;-0.10;99.90
72940;DHT22;61094;51.154;13.570;2023-02-27T08:17:22;0.00;99.90
72940;DHT22;61094;51.154;13.570;2023-02-27T08:19:25;0.10;99.90
72940;DHT22;61094;51.154;13.570;2023-02-27T08:21:28;0.10;99.90
72940;DHT22;61094;51.154;13.570;2023-02-27T08:23:30;0.20;99.90
72940;DHT22;61094;51.154;13.570;2023-02-27T08:25:33;0.20;99.90
72940;DHT22;61094;51.154;13.570;2023-02-27T08:27:35;0.20;99.90
72940;DHT22;61094;51.154;13.570;2023-02-27T08:29:37;0.30;99.90
72940;DHT22;61094;51.154;13.570;2023-02-27T08:31:39;0.40;99.90
72940;DHT22;61094;51.154;13.570;2023-02-27T08:33:40;0.40;99.90
72940;DHT22;61094;51.154;13.570;2023-02-27T08:35:43;0.50;99.90
72940;DHT22;61094;51.154;13.570;2023-02-27T08:37:45;0.50;99.90
72940;DHT22;61094;51.154;13.570;2023-02-27T08:39:48;0.60;99.90
72940;DHT22;61094;51.154;13.570;2023-02-27T08:41:50;0.60;99.90
72940;DHT22;61094;51.154;13.570;2023-02-27T08:43:51;0.60;99.90
72940;DHT22;61094;51.154;13.570;2023-02-27T08:45:53;0.70;99.90
72940;DHT22;61094;51.154;13.570;2023-02-27T08:47:55;0.70;99.90
72940;DHT22;61094;51.154;13.570;2023-02-27T08:49:56;0.70;99.90
72940;DHT22;61094;51.154;13.570;2023-02-27T08:52:00;0.70;99.90
72940;DHT22;61094;51.154;13.570;2023-02-27T08:54:03;0.70;99.90
72940;DHT22;61094;51.154;13.570;2023-02-27T08:56:05;0.80;99.90
72940;DHT22;61094;51.154;13.570;2023-02-27T08:58:07;0.80;99.90
72940;DHT22;61094;51.154;13.570;2023-02-27T09:00:10;0.80;99.90
72940;DHT22;61094;51.154;13.570;2023-02-27T09:02:14;0.90;99.90
72940;DHT22;61094;51.154;13.570;2023-02-27T09:04:15;0.80;99.90
72940;DHT22;61094;51.154;13.570;2023-02-27T09:06:17;0.80;99.90
72940;DHT22;61094;51.154;13.570;2023-02-27T09:08:20;0.90;99.90
72940;DHT22;61094;51.154;13.570;2023-02-27T09:10:22;1.00;99.90
72940;DHT22;61094;51.154;13.570;2023-02-27T09:12:23;1.00;99.90
72940;DHT22;61094;51.154;13.570;2023-02-27T09:14:25;1.10;99.90
72940;DHT22;61094;51.154;13.570;2023-02-27T09:16:27;1.20;99.90
72940;DHT22;61094;51.154;13.570;2023-02-27T09:18:28;1.30;99.90
72940;DHT22;61094;51.154;13.570;2023-02-27T09:20:30;1.30;99.90
72940;DHT22;61094;51.154;13.570;2023-02-27T09:22:32;1.40;99.90
72940;DHT22;61094;51.154;13.570;2023-02-27T09:24:35;1.40;99.90
72940;DHT22;61094;51.154;13.570;2023-02-27T09:26:37;1.40;99.90
72940;DHT22;61094;51.154;13.570;2023-02-27T09:28:38;1.40;99.90
72940;DHT22;61094;51.154;13.570;2023-02-27T09:30:40;1.40;99.90
72940;DHT22;61094;51.154;13.570;2023-02-27T09:32:42;1.40;99.90
72940;DHT22;61094;51.154;13.570;2023-02-27T09:34:43;1.50;99.90
72940;DHT22;61094;51.154;13.570;2023-02-27T09:36:45;1.50;99.90
72940;DHT22;61094;51.154;13.570;2023-02-27T09:38:47;1.50;99.90
72940;DHT22;61094;51.154;13.570;2023-02-27T09:40:52;1.40;99.90
72940;DHT22;61094;51.154;13.570;2023-02-27T09:42:56;1.50;99.90
72940;DHT22;61094;51.154;13.570;2023-02-27T09:45:02;1.40;99.90
72940;DHT22;61094;51.154;13.570;2023-02-27T09:47:08;1.40;99.90
72940;DHT22;61094;51.154;13.570;2023-02-27T09:49:15;1.40;99.90
72940;DHT22;61094;51.154;13.570;2023-02-27T09:51:20;1.30;99.90
72940;DHT22;61094;51.154;13.570;2023-02-27T09:53:24;1.30;99.90
72940;DHT22;61094;51.154;13.570;2023-02-27T09:55:30;1.30;99.90
72940;DHT22;61094;51.154;13.570;2023-02-27T09:57:41;1.30;99.90
72940;DHT22;61094;51.154;13.570;2023-02-27T09:59:48;1.30;99.90
72940;DHT22;61094;51.154;13.570;2023-02-27T10:01:54;1.30;99.90
72940;DHT22;61094;51.154;13.570;2023-02-27T10:04:23;1.30;99.90
72940;DHT22;61094;51.154;13.570;2023-02-27T10:06:31;1.30;99.90
72940;DHT22;61094;51.154;13.570;2023-02-27T10:08:41;1.40;99.90
72940;DHT22;61094;51.154;13.570;2023-02-27T10:10:51;1.40;99.90
72940;DHT22;61094;51.154;13.570;2023-02-27T10:13:24;1.40;99.90
72940;DHT22;61094;51.154;13.570;2023-02-27T10:15:32;1.40;99.90
72940;DHT22;61094;51.154;13.570;2023-02-27T10:17:38;1.40;99.90
72940;DHT22;61094;51.154;13.570;2023-02-27T10:19:43;1.40;99.90
72940;DHT22;61094;51.154;13.570;2023-02-27T10:21:45;1.40;99.90
72940;DHT22;61094;51.154;13.570;2023-02-27T10:23:52;1.40;99.90
72940;DHT22;61094;51.154;13.570;2023-02-27T10:25:56;1.40;99.90
72940;DHT22;61094;51.154;13.570;2023-02-27T10:28:08;1.40;99.90
72940;DHT22;61094;51.154;13.570;2023-02-27T10:30:20;1.50;99.90
72940;DHT22;61094;51.154;13.570;2023-02-27T10:32:24;1.50;99.90
72940;DHT22;61094;51.154;13.570;2023-02-27T10:34:27;1.60;99.90
72940;DHT22;61094;51.154;13.570;2023-02-27T10:36:30;1.60;99.90
72940;DHT22;61094;51.154;13.570;2023-02-27T10:38:33;1.60;99.90
72940;DHT22;61094;51.154;13.570;2023-02-27T10:40:39;1.70;99.90
72940;DHT22;61094;51.154;13.570;2023-02-27T10:42:41;1.70;99.90
72940;DHT22;61094;51.154;13.570;2023-02-27T10:44:44;1.80;99.90
72940;DHT22;61094;51.154;13.570;2023-02-27T10:46:47;1.80;99.90
72940;DHT22;61094;51.154;13.570;2023-02-27T10:48:49;1.80;99.90
72940;DHT22;61094;51.154;13.570;2023-02-27T10:50:51;1.80;99.90
72940;DHT22;61094;51.154;13.570;2023-02-27T10:52:55;1.90;99.90
72940;DHT22;61094;51.154;13.570;2023-02-27T10:55:16;1.90;99.90
72940;DHT22;61094;51.154;13.570;2023-02-27T10:57:24;2.00;99.90
72940;DHT22;61094;51.154;13.570;2023-02-27T10:59:28;2.00;99.90
72940;DHT22;61094;51.154;13.570;2023-02-27T11:01:41;2.10;99.90
72940;DHT22;61094;51.154;13.570;2023-02-27T11:03:45;2.20;99.90
72940;DHT22;61094;51.154;13.570;2023-02-27T11:05:52;2.30;99.90
72940;DHT22;61094;51.154;13.570;2023-02-27T11:07:56;2.40;99.90
72940;DHT22;61094;51.154;13.570;2023-02-27T11:10:19;2.60;99.90
72940;DHT22;61094;51.154;13.570;2023-02-27T11:12:25;2.70;99.90
72940;DHT22;61094;51.154;13.570;2023-02-27T11:14:29;2.90;99.90
72940;DHT22;61094;51.154;13.570;2023-02-27T11:16:44;3.10;99.90
72940;DHT22;61094;51.154;13.570;2023-02-27T11:18:50;3.20;99.90
72940;DHT22;61094;51.154;13.570;2023-02-27T11:20:59;3.50;99.90
72940;DHT22;61094;51.154;13.570;2023-02-27T11:23:14;3.90;99.90
72940;DHT22;61094;51.154;13.570;2023-02-27T11:25:18;4.40;99.90
72940;DHT22;61094;51.154;13.570;2023-02-27T11:27:22;4.70;99.90
72940;DHT22;61094;51.154;13.570;2023-02-27T11:29:26;5.10;99.90
72940;DHT22;61094;51.154;13.570;2023-02-27T11:31:30;5.60;99.90
72940;DHT22;61094;51.154;13.570;2023-02-27T11:33:34;6.10;99.90
72940;DHT22;61094;51.154;13.570;2023-02-27T11:35:38;6.40;99.90
72940;DHT22;61094;51.154;13.570;2023-02-27T11:37:39;6.50;99.90
72940;DHT22;61094;51.154;13.570;2023-02-27T11:39:48;6.50;99.90
72940;DHT22;61094;51.154;13.570;2023-02-27T11:41:52;6.40;99.90
72940;DHT22;61094;51.154;13.570;2023-02-27T11:43:56;6.40;99.90
72940;DHT22;61094;51.154;13.570;2023-02-27T11:45:59;6.20;99.90
72940;DHT22;61094;51.154;13.570;2023-02-27T11:48:08;6.10;99.90
72940;DHT22;61094;51.154;13.570;2023-02-27T11:50:30;6.00;99.90
72940;DHT22;61094;51.154;13.570;2023-02-27T11:52:43;5.90;99.90
72940;DHT22;61094;51.154;13.570;2023-02-27T11:54:50;5.80;99.90
72940;DHT22;61094;51.154;13.570;2023-02-27T11:56:57;5.70;99.90
72940;DHT22;61094;51.154;13.570;2023-02-27T11:59:02;5.60;99.90
72940;DHT22;61094;51.154;13.570;2023-02-27T12:01:07;5.60;99.90
72940;DHT22;61094;51.154;13.570;2023-02-27T12:03:19;5.40;99.90
72940;DHT22;61094;51.154;13.570;2023-02-27T12:05:26;5.30;99.90
72940;DHT22;61094;51.154;13.570;2023-02-27T12:07:31;5.10;99.90
72940;DHT22;61094;51.154;13.570;2023-02-27T12:09:41;4.80;99.90
72940;DHT22;61094;51.154;13.570;2023-02-27T12:11:45;4.70;99.90
72940;DHT22;61094;51.154;13.570;2023-02-27T12:13:52;4.50;99.90
72940;DHT22;61094;51.154;13.570;2023-02-27T12:15:59;4.40;99.90
72940;DHT22;61094;51.154;13.570;2023-02-27T12:18:08;4.20;99.90
72940;DHT22;61094;51.154;13.570;2023-02-27T12:20:22;4.00;99.90
72940;DHT22;61094;51.154;13.570;2023-02-27T12:22:29;3.90;99.90
72940;DHT22;61094;51.154;13.570;2023-02-27T12:24:39;3.70;99.90
72940;DHT22;61094;51.154;13.570;2023-02-27T12:26:45;3.60;99.90
72940;DHT22;61094;51.154;13.570;2023-02-27T12:28:53;3.50;99.90
72940;DHT22;61094;51.154;13.570;2023-02-27T12:31:12;3.50;99.90
72940;DHT22;61094;51.154;13.570;2023-02-27T12:33:20;3.50;99.90
72940;DHT22;61094;51.154;13.570;2023-02-27T12:35:29;3.50;99.90
72940;DHT22;61094;51.154;13.570;2023-02-27T12:37:32;3.40;99.90
72940;DHT22;61094;51.154;13.570;2023-02-27T12:39:34;3.20;99.90
72940;DHT22;61094;51.154;13.570;2023-02-27T12:41:43;3.20;99.90
72940;DHT22;61094;51.154;13.570;2023-02-27T12:43:52;3.20;99.90
72940;DHT22;61094;51.154;13.570;2023-02-27T12:46:19;3.10;99.90
72940;DHT22;61094;51.154;13.570;2023-02-27T12:48:37;3.10;99.90
72940;DHT22;61094;51.154;13.570;2023-02-27T12:50:47;2.90;99.90
72940;DHT22;61094;51.154;13.570;2023-02-27T12:53:00;2.90;99.90
72940;DHT22;61094;51.154;13.570;2023-02-27T12:55:09;2.80;99.90
72940;DHT22;61094;51.154;13.570;2023-02-27T12:57:27;2.80;99.90
72940;DHT22;61094;51.154;13.570;2023-02-27T12:59:42;2.80;99.90
72940;DHT22;61094;51.154;13.570;2023-02-27T13:01:50;2.70;99.90
72940;DHT22;61094;51.154;13.570;2023-02-27T13:03:57;2.70;99.90
72940;DHT22;61094;51.154;13.570;2023-02-27T13:06:05;2.70;99.90
72940;DHT22;61094;51.154;13.570;2023-02-27T13:10:41;2.60;99.90
72940;DHT22;61094;51.154;13.570;2023-02-27T13:12:49;2.60;99.90
72940;DHT22;61094;51.154;13.570;2023-02-27T13:14:55;2.50;99.90
72940;DHT22;61094;51.154;13.570;2023-02-27T13:17:02;2.50;99.90